Time;durP1;ratioP1;P1;durP2;ratioP2;P2;SDS_P1;SDS_P2;PMS_P1;PMS_P2;Temp;Humidity;BMP_temperature;BMP_pressure;BME280_temperature;BME280_humidity;BME280_pressure;Samples;Min_cycle;Max_cycle;Signal;HPM_P1;HPM_P2
2023/08/03 00:00:40;;;;;;;0.10;0.10;;;;;;;20.99;100.00;97991.66;7394661;19;20024;-69
2023/08/03 00:03:07;;;;;;;5.97;1.20;;;;;;;20.58;100.00;97995.53;7396310;19;20451;-60
2023/08/03 00:05:33;;;;;;;0.52;0.10;;;;;;;20.50;100.00;97998.50;7397169;19;20014;-61
2023/08/03 00:07:59;;;;;;;3.53;0.32;;;;;;;19.37;100.00;98006.34;7396124;19;20011;-61
2023/08/03 00:10:26;;;;;;;0.10;0.10;;;;;;;18.79;100.00;98001.44;7395711;19;20384;-60
2023/08/03 00:12:52;;;;;;;0.47;0.20;;;;;;;20.10;100.00;98004.50;7393414;19;20094;-60
2023/08/03 00:15:19;;;;;;;0.20;0.10;;;;;;;18.54;100.00;98015.50;7394700;19;20049;-60
2023/08/03 00:17:45;;;;;;;3.75;0.60;;;;;;;18.37;100.00;98011.84;7394645;19;20481;-61
2023/08/03 00:20:11;;;;;;;0.40;0.20;;;;;;;18.40;100.00;98010.72;7395480;19;20011;-60
2023/08/03 00:22:37;;;;;;;0.75;0.20;;;;;;;18.21;100.00;98024.56;7395254;19;20006;-60
2023/08/03 00:25:04;;;;;;;0.40;0.28;;;;;;;18.38;100.00;98027.44;7394909;19;20011;-60
2023/08/03 00:27:30;;;;;;;0.63;0.47;;;;;;;18.28;100.00;98029.41;7393760;19;20007;-60
2023/08/03 00:29:57;;;;;;;1.35;0.20;;;;;;;18.21;100.00;98038.63;7393075;19;20011;-67
2023/08/03 00:32:23;;;;;;;0.10;0.08;;;;;;;18.09;100.00;98050.34;7392911;19;20038;-68
2023/08/03 00:34:49;;;;;;;0.35;0.10;;;;;;;18.04;100.00;98051.28;7393074;19;20017;-68
2023/08/03 00:37:15;;;;;;;0.40;0.20;;;;;;;17.93;100.00;98057.34;7394638;19;20070;-67
2023/08/03 00:39:42;;;;;;;0.40;0.10;;;;;;;17.92;100.00;98053.03;7392222;19;20011;-67
2023/08/03 00:42:09;;;;;;;0.10;0.10;;;;;;;17.88;100.00;98061.13;7391611;19;20492;-67
2023/08/03 00:44:35;;;;;;;0.17;0.17;;;;;;;17.83;100.00;98056.47;7393647;19;20011;-67
2023/08/03 00:47:02;;;;;;;0.10;0.10;;;;;;;17.82;100.00;98063.41;7393384;19;20025;-68
2023/08/03 00:49:28;;;;;;;0.65;0.45;;;;;;;18.13;100.00;98067.59;7399161;19;20011;-68
2023/08/03 00:51:55;;;;;;;1.70;0.43;;;;;;;19.11;100.00;98062.63;7392409;19;20015;-68
2023/08/03 00:54:22;;;;;;;0.15;0.15;;;;;;;23.17;100.00;98074.25;7392869;19;20018;-68
2023/08/03 00:56:48;;;;;;;0.10;0.10;;;;;;;23.84;100.00;98079.56;7390621;19;20044;-69
2023/08/03 00:59:15;;;;;;;0.15;0.03;;;;;;;23.94;100.00;98083.06;7395090;19;20010;-68
2023/08/03 01:01:41;;;;;;;0.20;0.10;;;;;;;24.21;100.00;98076.28;7392134;19;20010;-69
2023/08/03 01:04:08;;;;;;;0.10;0.10;;;;;;;24.46;100.00;98090.69;7392209;19;20006;-68
2023/08/03 01:06:35;;;;;;;0.10;0.10;;;;;;;24.56;100.00;98094.91;7392163;19;20505;-68
2023/08/03 01:09:04;;;;;;;0.35;0.35;;;;;;;24.69;100.00;98102.13;7396335;19;20019;-69
2023/08/03 01:11:30;;;;;;;0.10;0.00;;;;;;;25.39;100.00;98102.94;7391485;19;20018;-69
2023/08/03 01:13:57;;;;;;;0.82;0.13;;;;;;;25.54;100.00;98097.53;7393134;19;20014;-68
2023/08/03 01:16:24;;;;;;;0.50;0.10;;;;;;;24.60;100.00;98106.56;7393781;19;20778;-68
2023/08/03 01:18:50;;;;;;;0.32;0.32;;;;;;;24.80;100.00;98118.53;7394037;19;20558;-68
2023/08/03 01:21:21;;;;;;;0.50;0.22;;;;;;;24.37;100.00;98115.03;7391821;19;20010;-68
2023/08/03 01:23:48;;;;;;;;;;;;;;;23.80;100.00;98119.06;7391977;19;20399;-68
2023/08/03 01:26:14;;;;;;;0.10;0.10;;;;;;;23.37;100.00;98117.53;7393706;19;19942;-68
2023/08/03 01:28:40;;;;;;;0.70;0.38;;;;;;;20.34;100.00;98138.59;7394378;19;20017;-69
2023/08/03 01:31:07;;;;;;;0.73;0.40;;;;;;;22.91;100.00;98129.22;7392355;19;20108;-68
2023/08/03 01:33:33;;;;;;;0.28;0.10;;;;;;;23.02;100.00;98125.00;7392021;19;20463;-68
2023/08/03 01:35:59;;;;;;;0.20;0.20;;;;;;;21.84;100.00;98135.56;7391525;19;20022;-69
2023/08/03 01:38:25;;;;;;;0.30;0.10;;;;;;;21.06;100.00;98138.75;7392622;19;20019;-69
2023/08/03 01:40:53;;;;;;;0.88;0.10;;;;;;;20.84;100.00;98142.63;7391266;19;20530;-68
2023/08/03 01:43:21;;;;;;;1.23;0.35;;;;;;;20.73;100.00;98136.75;7391900;19;20464;-69
2023/08/03 01:45:47;;;;;;;1.13;0.25;;;;;;;21.90;100.00;98143.78;7390663;19;20029;-70
2023/08/03 01:48:14;;;;;;;0.20;0.20;;;;;;;21.78;100.00;98159.84;7390499;19;20042;-69
2023/08/03 01:50:40;;;;;;;0.32;0.20;;;;;;;21.66;100.00;98156.09;7389502;19;20038;-68
2023/08/03 01:53:07;;;;;;;0.63;0.17;;;;;;;21.42;100.00;98165.59;7388280;19;20043;-68
2023/08/03 01:55:33;;;;;;;0.90;0.20;;;;;;;21.09;100.00;98171.53;7391616;19;20038;-68
2023/08/03 01:57:59;;;;;;;0.20;0.00;;;;;;;22.36;100.00;98161.41;7388792;19;20018;-67
2023/08/03 02:00:25;;;;;;;0.20;0.20;;;;;;;22.54;100.00;98171.22;7389831;19;20440;-68
2023/08/03 02:02:52;;;;;;;0.60;0.10;;;;;;;22.57;100.00;98170.03;7391389;19;20010;-67
2023/08/03 02:05:21;;;;;;;0.10;0.10;;;;;;;22.04;100.00;98167.53;7391644;19;20399;-68
2023/08/03 02:07:55;;;;;;;0.30;0.10;;;;;;;21.64;100.00;98175.75;7389577;19;20017;-68
2023/08/03 02:10:23;;;;;;;0.35;0.30;;;;;;;21.35;100.00;98180.59;7390968;19;20022;-68
2023/08/03 02:12:50;;;;;;;0.10;0.10;;;;;;;20.49;100.00;98188.59;7395941;19;20010;-68
2023/08/03 02:15:16;;;;;;;0.35;0.20;;;;;;;19.87;100.00;98199.03;7398099;19;20015;-68
2023/08/03 02:17:43;;;;;;;0.10;0.10;;;;;;;19.81;100.00;98206.22;7396832;19;20347;-69
2023/08/03 02:20:11;;;;;;;0.10;0.10;;;;;;;19.63;100.00;98203.38;7398335;19;20014;-68
2023/08/03 02:22:37;;;;;;;2.45;0.30;;;;;;;19.67;100.00;98197.31;7396675;19;20025;-68
2023/08/03 02:25:04;;;;;;;0.10;0.10;;;;;;;19.51;100.00;98204.44;7399890;19;20018;-68
2023/08/03 02:27:30;;;;;;;0.38;0.20;;;;;;;19.82;100.00;98214.13;7398308;19;20010;-67
2023/08/03 02:29:56;;;;;;;0.20;0.20;;;;;;;20.04;100.00;98209.59;7399320;19;20340;-68
2023/08/03 02:32:25;;;;;;;0.10;0.10;;;;;;;19.74;100.00;98215.53;7398482;19;20021;-67
2023/08/03 02:34:51;;;;;;;0.60;0.20;;;;;;;19.67;100.00;98225.56;7400016;19;20471;-68
2023/08/03 02:37:17;;;;;;;0.10;0.10;;;;;;;19.51;100.00;98219.28;7396727;19;20014;-67
2023/08/03 02:39:44;;;;;;;1.55;0.32;;;;;;;19.62;100.00;98224.47;7397638;19;20463;-68
2023/08/03 02:42:11;;;;;;;1.65;0.57;;;;;;;19.59;100.00;98222.81;7397703;19;20019;-67
2023/08/03 02:44:41;;;;;;;0.10;0.10;;;;;;;19.89;100.00;98229.50;7397111;19;20018;-68
2023/08/03 02:47:09;;;;;;;0.10;0.10;;;;;;;19.61;100.00;98242.00;7397030;19;20011;-67
2023/08/03 02:49:35;;;;;;;0.10;0.10;;;;;;;19.55;100.00;98253.53;7397251;19;20070;-68
2023/08/03 02:52:05;;;;;;;1.17;0.20;;;;;;;19.77;100.00;98251.84;7397806;19;20437;-68
2023/08/03 02:54:41;;;;;;;1.27;0.52;;;;;;;19.77;100.00;98251.09;7397615;19;20022;-68
2023/08/03 02:57:08;;;;;;;0.25;0.15;;;;;;;19.91;100.00;98261.50;7396374;19;20438;-67
2023/08/03 02:59:34;;;;;;;0.32;0.20;;;;;;;19.97;100.00;98258.44;7396814;19;20018;-67
2023/08/03 03:02:00;;;;;;;0.43;0.20;;;;;;;20.19;100.00;98263.88;7396428;19;20325;-68
2023/08/03 03:04:32;;;;;;;0.10;0.10;;;;;;;20.08;100.00;98270.03;7397117;19;20021;-68
2023/08/03 03:06:58;;;;;;;0.98;0.55;;;;;;;20.05;100.00;98270.44;7396118;19;20018;-68
2023/08/03 03:09:25;;;;;;;0.10;0.10;;;;;;;19.99;100.00;98273.50;7401276;19;20017;-68
2023/08/03 03:11:55;;;;;;;0.68;0.25;;;;;;;20.15;100.00;98271.28;7396402;19;20015;-68
2023/08/03 03:14:25;;;;;;;0.22;0.10;;;;;;;20.07;100.00;98265.72;7396420;19;20027;-69
2023/08/03 03:16:51;;;;;;;0.17;0.10;;;;;;;21.67;100.00;98276.59;7395559;19;20527;-67
2023/08/03 03:19:19;;;;;;;1.00;0.25;;;;;;;20.18;100.00;98284.25;7400706;19;20015;-67
2023/08/03 03:21:45;;;;;;;0.20;0.13;;;;;;;19.83;100.00;98288.34;7400692;19;20070;-67
2023/08/03 03:24:12;;;;;;;0.30;0.25;;;;;;;19.75;100.00;98293.31;7394860;19;20020;-67
2023/08/03 03:26:38;;;;;;;0.85;0.45;;;;;;;19.71;100.00;98287.31;7396985;19;20018;-68
2023/08/03 03:29:04;;;;;;;1.85;0.80;;;;;;;19.62;100.00;98302.81;7398906;19;20045;-67
2023/08/03 03:31:32;;;;;;;1.15;0.75;;;;;;;19.66;100.00;98309.53;7395619;19;20022;-68
2023/08/03 03:34:00;;;;;;;0.10;0.10;;;;;;;19.62;100.00;98325.41;7396282;19;20022;-68
2023/08/03 03:36:26;;;;;;;0.10;0.10;;;;;;;19.60;100.00;98328.78;7395182;19;20019;-67
2023/08/03 03:38:53;;;;;;;0.10;0.10;;;;;;;19.55;100.00;98329.03;7397622;19;20038;-67
2023/08/03 03:41:19;;;;;;;0.35;0.15;;;;;;;19.46;100.00;98335.28;7397397;19;20043;-68
2023/08/03 03:43:47;;;;;;;0.52;0.32;;;;;;;21.59;100.00;98324.13;7395464;19;20367;-67
2023/08/03 03:46:13;;;;;;;0.38;0.30;;;;;;;21.83;100.00;98328.88;7397256;19;20700;-68
2023/08/03 03:48:40;;;;;;;0.20;0.20;;;;;;;21.86;100.00;98336.22;7393719;19;20010;-67
2023/08/03 03:51:06;;;;;;;0.55;0.20;;;;;;;21.81;100.00;98337.19;7394509;19;20025;-67
2023/08/03 03:53:33;;;;;;;0.57;0.43;;;;;;;21.77;100.00;98342.56;7390253;19;20455;-68
2023/08/03 03:56:06;;;;;;;0.10;0.10;;;;;;;21.57;100.00;98338.16;7390712;19;20015;-67
2023/08/03 03:58:32;;;;;;;0.95;0.52;;;;;;;21.50;100.00;98350.31;7391788;19;20018;-67
2023/08/03 04:00:58;;;;;;;0.43;0.22;;;;;;;21.63;100.00;98355.63;7390947;19;20459;-67
2023/08/03 04:03:26;;;;;;;0.20;0.15;;;;;;;21.51;100.00;98358.22;7393933;19;20173;-68
2023/08/03 04:05:54;;;;;;;1.95;0.10;;;;;;;21.36;100.00;98366.16;7394850;19;20039;-67
2023/08/03 04:08:20;;;;;;;0.10;0.10;;;;;;;21.38;100.00;98374.81;7396699;19;20006;-68
2023/08/03 04:10:47;;;;;;;3.60;0.15;;;;;;;21.60;100.00;98377.38;7394132;19;20077;-68
2023/08/03 04:13:13;;;;;;;0.20;0.20;;;;;;;21.49;100.00;98385.63;7393513;19;20014;-69
2023/08/03 04:15:39;;;;;;;1.55;0.20;;;;;;;21.34;100.00;98383.75;7394154;19;20934;-69
2023/08/03 04:18:06;;;;;;;0.90;0.20;;;;;;;21.40;100.00;98389.91;7394766;19;20031;-69
2023/08/03 04:20:34;;;;;;;0.98;0.20;;;;;;;21.42;100.00;98389.34;7396669;19;20031;-69
2023/08/03 04:23:00;;;;;;;0.40;0.20;;;;;;;21.43;100.00;98396.50;7393263;19;20086;-69
2023/08/03 04:25:27;;;;;;;1.77;0.20;;;;;;;21.46;100.00;98398.16;7393286;19;20011;-69
2023/08/03 04:28:03;;;;;;;0.17;0.17;;;;;;;21.46;100.00;98406.66;7395261;19;20017;-69
2023/08/03 04:30:34;;;;;;;0.10;0.10;;;;;;;21.45;100.00;98410.81;7395652;19;20044;-68
2023/08/03 04:33:00;;;;;;;0.32;0.10;;;;;;;21.27;100.00;98417.84;7393873;19;20232;-68
2023/08/03 04:35:28;;;;;;;0.30;0.17;;;;;;;21.35;100.00;98421.34;7393408;19;20487;-68
2023/08/03 04:38:03;;;;;;;0.10;0.10;;;;;;;21.23;100.00;98417.50;7392872;19;20014;-69
2023/08/03 04:40:31;;;;;;;0.10;0.00;;;;;;;20.98;100.00;98421.16;7392797;19;20376;-68
2023/08/03 04:42:57;;;;;;;0.20;0.20;;;;;;;21.01;100.00;98422.03;7393437;19;20070;-68
2023/08/03 04:45:24;;;;;;;0.10;0.03;;;;;;;20.81;100.00;98429.59;7393750;19;20014;-68
2023/08/03 04:47:50;;;;;;;0.55;0.50;;;;;;;20.60;100.00;98431.31;7393908;19;20031;-68
2023/08/03 04:50:19;;;;;;;1.60;0.77;;;;;;;20.35;100.00;98439.84;7394428;19;20011;-68
2023/08/03 04:52:45;;;;;;;0.85;0.50;;;;;;;20.11;100.00;98441.28;7393914;19;20031;-68
2023/08/03 04:55:12;;;;;;;0.40;0.40;;;;;;;20.75;100.00;98442.50;7392760;19;20015;-68
2023/08/03 04:57:38;;;;;;;0.82;0.30;;;;;;;21.59;100.00;98443.13;7392508;19;20486;-69
2023/08/03 05:00:06;;;;;;;0.32;0.10;;;;;;;21.56;100.00;98453.56;7387493;19;20085;-86
2023/08/03 05:02:33;;;;;;;0.25;0.25;;;;;;;21.47;100.00;98450.63;7388523;19;20018;-86
2023/08/03 05:04:59;;;;;;;0.20;0.20;;;;;;;21.34;100.00;98450.97;7385509;19;20039;-86
2023/08/03 05:07:27;;;;;;;0.60;0.20;;;;;;;21.49;100.00;98454.38;7386649;19;20021;-86
2023/08/03 05:09:54;;;;;;;1.17;0.50;;;;;;;21.47;100.00;98465.56;7388677;19;20015;-86
2023/08/03 05:12:20;;;;;;;1.20;0.25;;;;;;;21.56;100.00;98472.63;7392701;19;20096;-86
2023/08/03 05:14:46;;;;;;;0.20;0.10;;;;;;;21.82;100.00;98477.59;7390441;19;20060;-87
2023/08/03 05:17:12;;;;;;;1.33;0.50;;;;;;;22.05;100.00;98480.88;7388956;19;20014;-86
2023/08/03 05:19:38;;;;;;;1.75;0.25;;;;;;;21.80;100.00;98480.25;7389293;19;20019;-89
2023/08/03 05:22:04;;;;;;;10.48;0.68;;;;;;;21.57;100.00;98486.19;7390664;19;20011;-86
2023/08/03 05:24:31;;;;;;;0.10;0.10;;;;;;;21.86;100.00;98492.13;7392024;19;20090;-87
2023/08/03 05:26:57;;;;;;;0.20;0.20;;;;;;;22.26;100.00;98503.84;7389430;19;20027;-84
2023/08/03 05:29:23;;;;;;;0.28;0.10;;;;;;;21.81;100.00;98496.69;7391460;19;20014;-84
2023/08/03 05:31:49;;;;;;;0.30;0.30;;;;;;;21.95;100.00;98497.09;7391076;19;20074;-84
2023/08/03 05:34:15;;;;;;;0.10;0.10;;;;;;;22.17;100.00;98489.63;7391612;19;20168;-85
2023/08/03 05:36:41;;;;;;;0.35;0.32;;;;;;;22.87;100.00;98502.94;7390749;19;20542;-84
2023/08/03 05:39:08;;;;;;;0.82;0.43;;;;;;;22.45;100.00;98498.28;7390863;19;20014;-84
2023/08/03 05:41:34;;;;;;;0.52;0.20;;;;;;;22.27;100.00;98491.16;7389349;19;20082;-84
2023/08/03 05:44:01;;;;;;;1.88;0.55;;;;;;;21.73;100.00;98509.44;7389181;19;20038;-84
2023/08/03 05:46:32;;;;;;;2.83;0.85;;;;;;;21.24;100.00;98503.97;7391501;19;20081;-84
2023/08/03 05:48:58;;;;;;;;;;;;;;;21.16;100.00;98509.69;7397497;19;20043;-83
2023/08/03 05:51:26;;;;;;;1.85;0.50;;;;;;;21.59;100.00;98511.13;7398076;19;20330;-84
2023/08/03 05:53:54;;;;;;;0.38;0.38;;;;;;;21.87;100.00;98519.88;7393958;19;20359;-84
2023/08/03 05:56:22;;;;;;;0.35;0.17;;;;;;;21.89;100.00;98516.47;7392891;19;20492;-84
2023/08/03 05:58:49;;;;;;;2.05;0.32;;;;;;;21.91;100.00;98518.72;7395715;19;20023;-84
2023/08/03 06:01:20;;;;;;;0.30;0.20;;;;;;;22.12;100.00;98519.00;7392627;19;20374;-84
2023/08/03 06:03:47;;;;;;;0.10;0.05;;;;;;;21.79;100.00;98524.09;7393121;19;20319;-84
2023/08/03 06:06:21;;;;;;;0.98;0.30;;;;;;;22.02;100.00;98524.63;7392851;19;20010;-84
2023/08/03 06:08:50;;;;;;;0.40;0.20;;;;;;;21.87;100.00;98530.47;7397240;19;20412;-84
2023/08/03 06:11:20;;;;;;;2.35;0.35;;;;;;;21.64;100.00;98535.63;7396448;19;20014;-84
2023/08/03 06:13:47;;;;;;;0.30;0.17;;;;;;;21.74;100.00;98544.97;7396720;19;20023;-84
2023/08/03 06:16:15;;;;;;;0.47;0.25;;;;;;;22.00;100.00;98544.28;7395598;19;20026;-84
2023/08/03 06:18:49;;;;;;;0.40;0.40;;;;;;;21.57;100.00;98548.53;7397719;19;20361;-84
2023/08/03 06:21:17;;;;;;;0.30;0.20;;;;;;;21.61;100.00;98556.63;7397151;19;20022;-84
2023/08/03 06:23:45;;;;;;;0.40;0.40;;;;;;;21.59;100.00;98559.31;7393471;19;20039;-84
2023/08/03 06:26:13;;;;;;;0.40;0.40;;;;;;;21.65;100.00;98560.56;7392273;19;20588;-84
2023/08/03 06:28:40;;;;;;;0.60;0.22;;;;;;;21.61;100.00;98571.53;7393991;19;20014;-84
2023/08/03 06:31:16;;;;;;;0.28;0.17;;;;;;;21.64;100.00;98576.03;7396336;19;20018;-84
2023/08/03 06:33:44;;;;;;;0.50;0.43;;;;;;;21.62;100.00;98575.13;7394134;19;20049;-85
2023/08/03 06:36:19;;;;;;;1.40;0.75;;;;;;;21.61;100.00;98580.03;7394976;19;20037;-84
2023/08/03 06:38:46;;;;;;;0.20;0.20;;;;;;;21.66;100.00;98579.03;7395897;19;20019;-84
2023/08/03 06:41:13;;;;;;;0.57;0.10;;;;;;;21.73;100.00;98586.72;7392786;19;20462;-84
2023/08/03 06:43:39;;;;;;;0.30;0.30;;;;;;;22.02;100.00;98589.81;7392687;19;20055;-84
2023/08/03 06:46:06;;;;;;;0.10;0.10;;;;;;;21.63;100.00;98585.88;7395034;19;20026;-84
2023/08/03 06:48:35;;;;;;;0.10;0.10;;;;;;;21.82;100.00;98597.41;7395037;19;20015;-84
2023/08/03 06:51:02;;;;;;;0.68;0.30;;;;;;;21.84;100.00;98603.25;7398147;19;20022;-85
2023/08/03 06:53:33;;;;;;;1.65;0.35;;;;;;;21.54;100.00;98605.63;7394683;19;20014;-84
2023/08/03 06:55:59;;;;;;;0.20;0.20;;;;;;;21.86;100.00;98614.00;7395511;19;20013;-84
2023/08/03 06:58:25;;;;;;;0.45;0.10;;;;;;;21.94;100.00;98614.66;7394002;19;20014;-84
2023/08/03 07:00:51;;;;;;;0.57;0.20;;;;;;;22.08;100.00;98615.06;7393024;19;20035;-84
2023/08/03 07:03:17;;;;;;;0.38;0.30;;;;;;;22.48;100.00;98616.25;7394602;19;20049;-85
2023/08/03 07:05:43;;;;;;;0.50;0.38;;;;;;;22.83;100.00;98627.53;7391543;19;20029;-84
2023/08/03 07:08:10;;;;;;;1.55;0.35;;;;;;;22.76;100.00;98628.41;7393230;19;20019;-84
2023/08/03 07:10:37;;;;;;;0.50;0.40;;;;;;;22.56;100.00;98639.63;7394916;19;20373;-84
2023/08/03 07:13:04;;;;;;;0.52;0.25;;;;;;;22.48;100.00;98652.41;7393760;19;20011;-85
2023/08/03 07:15:34;;;;;;;0.20;0.20;;;;;;;22.77;100.00;98650.53;7393335;19;20022;-84
2023/08/03 07:18:05;;;;;;;0.65;0.35;;;;;;;22.93;100.00;98654.66;7394916;19;20074;-85
2023/08/03 07:20:31;;;;;;;;;;;;;;;23.11;100.00;98652.47;7393651;19;20014;-86
2023/08/03 07:22:58;;;;;;;0.80;0.20;;;;;;;23.06;100.00;98650.66;7390642;19;19937;-85
2023/08/03 07:25:24;;;;;;;0.57;0.20;;;;;;;23.07;100.00;98655.00;7392538;19;20019;-85
2023/08/03 07:27:52;;;;;;;0.25;0.20;;;;;;;23.27;100.00;98662.25;7391450;19;20017;-83
2023/08/03 07:30:21;;;;;;;1.75;0.32;;;;;;;23.41;100.00;98663.41;7392718;19;20011;-84
2023/08/03 07:32:48;;;;;;;0.35;0.35;;;;;;;23.54;100.00;98671.50;7394842;19;20010;-86
2023/08/03 07:35:14;;;;;;;1.80;0.52;;;;;;;23.76;100.00;98678.88;7393107;19;20468;-86
2023/08/03 07:37:40;;;;;;;0.25;0.25;;;;;;;23.84;100.00;98676.69;7392916;19;20345;-86
2023/08/03 07:40:07;;;;;;;0.68;0.68;;;;;;;23.81;100.00;98677.84;7391105;19;20021;-85
2023/08/03 07:42:33;;;;;;;0.30;0.28;;;;;;;24.02;100.00;98675.19;7394215;19;20073;-86
2023/08/03 07:45:00;;;;;;;0.85;0.40;;;;;;;24.36;100.00;98677.03;7397351;19;20007;-86
2023/08/03 07:47:27;;;;;;;1.60;0.30;;;;;;;24.56;100.00;98683.47;7394090;19;20477;-86
2023/08/03 07:49:55;;;;;;;4.70;0.30;;;;;;;24.53;100.00;98684.66;7393777;19;20018;-85
2023/08/03 07:52:21;;;;;;;4.50;0.60;;;;;;;24.43;100.00;98683.94;7392682;19;20405;-85
2023/08/03 07:54:47;;;;;;;0.15;0.15;;;;;;;24.29;100.00;98695.00;7393965;19;20024;-85
2023/08/03 07:57:15;;;;;;;0.25;0.22;;;;;;;24.13;100.00;98695.91;7392263;19;20026;-88
2023/08/03 07:59:42;;;;;;;0.40;0.30;;;;;;;24.42;100.00;98693.81;7390782;19;20322;-89
2023/08/03 08:02:09;;;;;;;0.30;0.10;;;;;;;24.55;100.00;98701.88;7391380;19;20019;-87
2023/08/03 08:04:35;;;;;;;0.47;0.30;;;;;;;24.53;100.00;98705.34;7390346;19;20011;-87
2023/08/03 08:07:01;;;;;;;2.65;0.70;;;;;;;24.91;100.00;98698.84;7391731;19;20014;-87
2023/08/03 08:09:27;;;;;;;6.50;0.40;;;;;;;25.14;100.00;98704.81;7395160;19;20010;-88
2023/08/03 08:11:53;;;;;;;1.17;0.30;;;;;;;25.17;100.00;98703.59;7391950;19;20043;-87
2023/08/03 08:14:19;;;;;;;0.50;0.20;;;;;;;25.31;100.00;98698.91;7390609;19;20018;-87
2023/08/03 08:16:45;;;;;;;0.52;0.40;;;;;;;27.67;98.76;98711.72;7392606;19;20018;-87
2023/08/03 08:19:11;;;;;;;0.32;0.10;;;;;;;27.56;97.51;98703.88;7391889;19;20019;-87
2023/08/03 08:21:37;;;;;;;0.63;0.35;;;;;;;27.30;97.13;98716.50;7392382;19;20517;-87
2023/08/03 08:24:04;;;;;;;1.75;0.40;;;;;;;27.12;97.12;98724.69;7388536;19;20036;-88
2023/08/03 08:26:31;;;;;;;1.55;0.20;;;;;;;27.15;96.51;98728.41;7393434;19;20018;-87
2023/08/03 08:28:58;;;;;;;0.30;0.13;;;;;;;27.04;98.10;98724.16;7392558;19;20447;-87
2023/08/03 08:31:24;;;;;;;2.20;0.30;;;;;;;26.88;99.48;98723.88;7394777;19;20011;-88
2023/08/03 08:33:51;;;;;;;0.50;0.20;;;;;;;26.83;98.76;98722.09;7392334;19;20007;-88
2023/08/03 08:36:17;;;;;;;0.25;0.10;;;;;;;26.05;99.12;98725.41;7390959;19;20540;-88
2023/08/03 08:38:43;;;;;;;0.10;0.00;;;;;;;26.07;100.00;98722.69;7389335;19;20018;-88
2023/08/03 08:41:09;;;;;;;0.40;0.20;;;;;;;25.90;100.00;98725.81;7390350;19;20021;-88
2023/08/03 08:43:35;;;;;;;3.10;0.10;;;;;;;26.36;100.00;98714.69;7386951;19;20095;-88
2023/08/03 08:46:01;;;;;;;0.38;0.20;;;;;;;26.35;100.00;98727.47;7390823;19;20018;-88
2023/08/03 08:48:27;;;;;;;0.75;0.20;;;;;;;26.18;100.00;98736.31;7387064;19;20354;-87
2023/08/03 08:50:59;;;;;;;1.35;0.10;;;;;;;26.03;100.00;98734.56;7392061;19;20023;-87
2023/08/03 08:53:25;;;;;;;2.45;0.22;;;;;;;25.41;100.00;98739.50;7394621;19;20035;-87
2023/08/03 08:55:52;;;;;;;0.20;0.10;;;;;;;25.12;100.00;98747.38;7391073;19;20066;-85
2023/08/03 08:58:19;;;;;;;1.47;0.27;;;;;;;25.52;100.00;98738.13;7219729;19;3283673;-87
2023/08/03 09:00:46;;;;;;;0.30;0.22;;;;;;;25.81;100.00;98746.56;7388848;19;20053;-86
2023/08/03 09:03:14;;;;;;;0.52;0.17;;;;;;;26.05;100.00;98739.69;7388903;19;20489;-86
2023/08/03 09:05:40;;;;;;;0.43;0.10;;;;;;;26.10;100.00;98735.75;7393106;19;20041;-86
2023/08/03 09:08:11;;;;;;;0.13;0.10;;;;;;;25.83;99.92;98741.75;7391204;19;20027;-87
2023/08/03 09:10:53;;;;;;;6.90;0.32;;;;;;;25.51;100.00;98742.38;7391470;19;20469;-89
2023/08/03 09:13:31;;;;;;;0.35;0.20;;;;;;;25.92;100.00;98743.06;7390727;19;20010;-87
2023/08/03 09:15:58;;;;;;;0.10;0.00;;;;;;;25.36;100.00;98740.56;7393750;19;20681;-88
2023/08/03 09:18:27;;;;;;;0.10;0.00;;;;;;;25.35;100.00;98741.19;7389953;19;20015;-88
2023/08/03 09:21:10;;;;;;;0.22;0.20;;;;;;;25.29;100.00;98738.66;7390536;19;20607;-88
2023/08/03 09:23:36;;;;;;;1.20;0.57;;;;;;;25.42;100.00;98740.28;7390596;19;20007;-86
2023/08/03 09:26:04;;;;;;;2.83;0.70;;;;;;;25.78;100.00;98747.78;7388754;19;20027;-90
2023/08/03 09:28:41;;;;;;;0.40;0.28;;;;;;;25.84;100.00;98753.91;7394476;19;20026;-87
2023/08/03 09:31:09;;;;;;;1.65;0.32;;;;;;;25.78;100.00;98759.94;7391576;19;20088;-87
2023/08/03 09:33:36;;;;;;;0.20;0.10;;;;;;;25.63;100.00;98757.47;7391996;19;20018;-89
2023/08/03 09:36:10;;;;;;;0.10;0.08;;;;;;;25.92;100.00;98757.31;7391159;19;20438;-88
2023/08/03 09:38:37;;;;;;;0.30;0.10;;;;;;;26.05;100.00;98757.53;7389520;19;20022;-85
2023/08/03 09:41:04;;;;;;;6.57;0.40;;;;;;;25.72;99.90;98761.63;7387443;19;20038;-85
2023/08/03 09:43:31;;;;;;;0.65;0.20;;;;;;;25.54;100.00;98764.69;7389641;19;20022;-86
2023/08/03 09:45:58;;;;;;;0.80;0.22;;;;;;;25.32;99.57;98765.94;7392212;19;20090;-85
2023/08/03 09:48:25;;;;;;;1.10;0.10;;;;;;;25.79;100.00;98763.53;7389031;19;20014;-86
2023/08/03 09:50:57;;;;;;;0.30;0.20;;;;;;;27.07;100.00;98756.50;7392741;19;20022;-86
2023/08/03 09:53:25;;;;;;;0.98;0.35;;;;;;;26.51;100.00;98765.66;7392296;19;20015;-85
2023/08/03 09:55:58;;;;;;;1.13;0.20;;;;;;;27.00;100.00;98764.69;7392291;19;20044;-85
2023/08/03 09:58:40;;;;;;;0.10;0.10;;;;;;;27.05;97.41;98769.28;7389999;19;20376;-84
2023/08/03 10:01:09;;;;;;;0.28;0.15;;;;;;;26.94;95.76;98778.56;7388477;19;20330;-83
2023/08/03 10:03:38;;;;;;;0.55;0.20;;;;;;;26.86;95.79;98771.56;7389040;19;20090;-83
2023/08/03 10:06:11;;;;;;;0.20;0.10;;;;;;;27.66;93.21;98781.72;7387328;19;20047;-84
2023/08/03 10:08:47;;;;;;;1.10;0.10;;;;;;;27.62;92.50;98787.19;7390823;19;20022;-83
2023/08/03 10:11:13;;;;;;;0.28;0.08;;;;;;;27.74;93.58;98782.25;7389405;19;20018;-81
2023/08/03 10:13:51;;;;;;;0.10;0.00;;;;;;;26.94;95.65;98786.41;7389925;19;20074;-82
2023/08/03 10:16:18;;;;;;;0.10;0.10;;;;;;;26.62;96.87;98801.34;7387513;19;20369;-81
2023/08/03 10:18:45;;;;;;;0.10;0.08;;;;;;;26.24;97.07;98796.66;7389728;19;20019;-82
2023/08/03 10:21:12;;;;;;;0.20;0.20;;;;;;;25.89;97.55;98796.38;7388727;19;20524;-82
2023/08/03 10:23:39;;;;;;;0.10;0.10;;;;;;;25.81;98.24;98800.78;7387494;19;20086;-82
2023/08/03 10:26:09;;;;;;;1.73;0.30;;;;;;;25.45;99.21;98807.50;7387274;19;20019;-81
2023/08/03 10:28:38;;;;;;;0.73;0.10;;;;;;;24.46;100.00;98810.81;7388259;19;20103;-81
2023/08/03 10:31:12;;;;;;;0.82;0.20;;;;;;;24.23;100.00;98814.06;7392575;19;20339;-82
2023/08/03 10:33:51;;;;;;;1.48;0.20;;;;;;;25.75;100.00;98820.31;7393314;19;20347;-81
2023/08/03 10:36:26;;;;;;;0.65;0.20;;;;;;;24.37;100.00;98828.59;7394962;19;20011;-81
2023/08/03 10:38:53;;;;;;;0.10;0.10;;;;;;;24.21;100.00;98838.78;7398652;19;20018;-81
2023/08/03 10:41:24;;;;;;;0.20;0.20;;;;;;;24.08;100.00;98843.50;7392879;19;20015;-81
2023/08/03 10:44:05;;;;;;;;;;;;;;;24.30;100.00;98843.75;7393826;19;20485;-79
2023/08/03 10:46:49;;;;;;;;;;;;;;;25.31;100.00;98832.09;7398182;19;19922;-81
2023/08/03 10:49:18;;;;;;;0.95;0.28;;;;;;;27.04;97.77;98827.06;7395924;19;20334;-80
2023/08/03 10:51:45;;;;;;;0.45;0.20;;;;;;;27.87;95.25;98836.00;7399040;19;20395;-80
2023/08/03 10:54:12;;;;;;;0.30;0.10;;;;;;;27.41;97.71;98833.81;7397723;19;20017;-80
2023/08/03 10:56:38;;;;;;;0.40;0.17;;;;;;;26.46;100.00;98840.25;7396034;19;20367;-79
2023/08/03 10:59:04;;;;;;;0.25;0.20;;;;;;;26.19;100.00;98844.16;7394399;19;20512;-80
2023/08/03 11:01:31;;;;;;;0.73;0.13;;;;;;;26.32;100.00;98845.75;7393342;19;20010;-80
2023/08/03 11:04:00;;;;;;;2.20;0.20;;;;;;;26.27;100.00;98855.38;7393918;19;20025;-80
2023/08/03 11:06:29;;;;;;;0.10;0.00;;;;;;;26.64;100.00;98853.66;7393058;19;20070;-80
2023/08/03 11:08:56;;;;;;;2.00;0.22;;;;;;;26.43;100.00;98862.22;7396084;19;20026;-80
2023/08/03 11:11:23;;;;;;;1.45;0.20;;;;;;;26.51;100.00;98862.75;7395089;19;20088;-81
2023/08/03 11:13:50;;;;;;;0.68;0.47;;;;;;;26.55;100.00;98874.47;7393501;19;20034;-80
2023/08/03 11:16:21;;;;;;;0.28;0.10;;;;;;;26.43;100.00;98870.78;7392989;19;20011;-80
2023/08/03 11:18:48;;;;;;;0.93;0.28;;;;;;;26.45;100.00;98878.72;7395738;19;20039;-80
2023/08/03 11:21:15;;;;;;;0.30;0.20;;;;;;;26.38;100.00;98871.84;7396214;19;20086;-82
2023/08/03 11:23:41;;;;;;;0.55;0.20;;;;;;;26.35;100.00;98878.81;7391207;19;20010;-83
2023/08/03 11:26:09;;;;;;;2.53;0.35;;;;;;;26.47;100.00;98885.34;7391095;19;20031;-82
2023/08/03 11:28:43;;;;;;;0.32;0.10;;;;;;;26.81;100.00;98884.84;7394425;19;20047;-83